الصفحة الرئيسية
METAR-TAF:

METAR-TAF

مطار :

كولورادو سبرينغس, كولورادو, الولايات المتحدة

دائرة عرض: 38-56-45N, خط طول: 104-34-12W, ارتفاع: 2095 متر

مراقبة الطقس الحالي

تاريخ ووقت الإصدار 23 دقيقة قبل الساعة 04:35UTC
ريح 3 عقدة من الشرق
درجة الحرارة 17°درجة مئوية
الرطوبة 59%
ضغط 1028 hPa
الرؤية: 16.1 كم
غيوم متفرقة على ارتفاع 12000 قدم

METAR: KFLY 180435Z AUTO 08003KT 10SM SCT120 17/09 A3036 RMK AO2 T01660088

زمن: 22:58 (04:58 UTC)


TAF: مفقودة

أرصاد الطقس والتوقعات من أكثر من 4000 مطار (تقارير الطقس للمطار METAR والتنبؤ بالطقس بالمطارTAF).

المحطات المتاحة هي النقط الصفراء والحمراء على الخريطة.

حرك المؤشر فوق النقطة لمعرفة اسم المحطة.

ثم انقر لمعرفة أرصاد وتوقعات الطقس.

لتغيير الخارطة: اضغط على الأزرار الخضراء مع رمز الصليب الأسود للتكبير. على الزر الأخضر مع شرطة للتصغير، أو على الأسهم الخضراء للخرائط المجاورة.


METAR-TAF: